Terminal Aerodrome Forecast
Issued by NWS Sioux Falls, SD

Home | Current Version | Previous Version | Text Only | Print | Product List | Glossary On
Versions: 1 2 3 4 5 6 7 8 9 10 11 12 13 14 15 16 17 18 19 20
220
FTUS43 KFSD 061135
TAFFSD
TAF
KFSD 061135Z 0612/0712 21006KT P6SM SCT150
     FM061800 22011G17KT P6SM BKN150
     FM070000 25010KT P6SM BKN130
     FM070600 28012G20KT P6SM BKN100 WS010/30040KT=

USA.gov is the U.S. government's official web portal to all federal, state and local government web resources and services.